Latest Weather Observations for Tocal

IDN60801

Issued at 6:02 pm EST Friday 28 April 2017 (issued every 30 minutes, with the page automatically refreshed every 10 minutes)

About weather observations | Map of weather stations | Latest weather observations for NSW | Other Formats
Station Details ID: 061250 Name: TOCAL AWS Lat: -32.63 Lon: 151.59 Height: 30.0 m
Data from the previous 72 hours. | See also: Recent months at Tocal
Date/Time
EST
Temp
°C
App
Temp
°C
Dew
Point
°C
Rel
Hum
%
Delta-T
°C
Wind Press
QNH
hPa
Press
MSL
hPa
Rain since
9am
mm
Dir  Spd
km/h
Gust
km/h
Spd
kts
Gust
kts
28/06:00pm 15.4 15.4 9.8 69 2.9 CALM 0 0 0 0 - - 0.0
28/05:30pm 16.7 15.4 9.2 61 3.9 SSE 6 9 3 5 - - 0.0
28/05:00pm 18.0 16.5 8.3 53 5.0 S 6 7 3 4 - - 0.0
28/04:30pm 18.7 16.8 7.7 48 5.6 SSE 7 9 4 5 - - 0.0
28/04:00pm 19.1 17.3 8.0 48 5.7 SSE 7 9 4 5 - - 0.0
28/03:30pm 19.6 17.9 7.5 45 6.2 WSW 6 13 3 7 - - 0.0
28/03:00pm 19.8 17.4 7.2 44 6.4 S 9 13 5 7 - - 0.0
28/02:30pm 19.9 18.1 8.1 46 6.1 SSE 7 11 4 6 - - 0.0
28/02:00pm 19.9 18.3 8.6 48 5.9 SSE 7 17 4 9 - - 0.0
28/01:30pm 20.5 17.8 9.0 47 6.1 SW 13 17 7 9 - - 0.0
28/01:00pm 20.2 17.8 8.5 47 6.1 SSW 11 19 6 10 - - 0.0
28/12:30pm 19.6 16.4 6.9 43 6.4 SSW 13 20 7 11 - - 0.0
28/12:00pm 19.2 17.1 9.8 54 5.0 WSW 11 17 6 9 - - 0.0
28/11:30am 18.7 16.2 9.6 55 4.8 WSW 13 19 7 10 - - 0.0
28/11:00am 18.1 16.2 8.9 55 4.8 W 9 17 5 9 - - 0.0
28/10:30am 17.2 15.2 8.7 57 4.4 WSW 9 17 5 9 - - 0.0
28/10:00am 17.0 14.6 8.6 57 4.3 W 11 17 6 9 - - 0.0
28/09:30am 15.5 12.9 7.9 60 3.8 W 11 17 6 9 - - 0.0
28/09:00am 15.5 12.9 7.7 59 3.9 W 11 17 6 9 - - 0.8
28/08:30am 14.6 11.4 7.0 60 3.7 WSW 13 22 7 12 - - 0.8
28/08:00am 12.8 10.9 7.5 70 2.6 WNW 7 11 4 6 - - 0.8
28/07:30am 12.6 10.3 7.5 71 2.5 W 9 13 5 7 - - 0.8
28/07:00am 12.4 9.6 7.0 69 2.6 W 11 17 6 9 - - 0.8
28/06:30am 12.4 9.2 7.0 69 2.6 W 13 19 7 10 - - 0.8
28/06:00am 12.1 10.3 7.8 75 2.1 WNW 7 11 4 6 - - 0.8
28/05:30am 11.6 10.1 9.2 85 1.2 WNW 7 13 4 7 - - 0.8
28/05:00am 11.7 10.3 9.5 86 1.1 NW 7 9 4 5 - - 0.8
28/04:30am 11.8 10.5 10.0 89 0.9 NW 7 11 4 6 - - 0.8
28/04:00am 11.9 10.4 10.5 91 0.7 NNW 9 11 5 6 - - 0.8
28/03:30am 11.8 10.4 10.8 94 0.5 NNW 9 11 5 6 - - 0.8
28/03:00am 11.9 10.9 10.9 94 0.5 NNW 7 11 4 6 - - 0.8
28/02:30am 11.8 10.4 10.8 94 0.5 WNW 9 15 5 8 - - 0.8
28/02:00am 12.0 11.1 10.8 92 0.6 WNW 6 9 3 5 - - 0.4
28/01:30am 12.2 10.8 10.9 92 0.7 WNW 9 13 5 7 - - 0.4
28/01:00am 13.1 11.1 10.0 81 1.6 SW 11 24 6 13 - - 0.4
28/12:30am 13.7 12.3 9.6 76 2.1 WNW 7 11 4 6 - - 0.0
28/12:00am 13.1 11.9 9.6 79 1.8 WNW 6 9 3 5 - - 0.0
 
Date/Time
EST
Temp
°C
App
Temp
°C
Dew
Point
°C
Rel
Hum
%
Delta-T
°C
Wind Press
QNH
hPa
Press
MSL
hPa
Rain since
9am
mm
Dir  Spd
km/h
Gust
km/h
Spd
kts
Gust
kts
27/11:30pm 12.5 12.3 10.6 88 1.0 N 2 6 1 3 - - 0.0
27/11:00pm 12.8 12.9 10.3 85 1.3 CALM 0 0 0 0 - - 0.0
27/10:30pm 13.0 11.3 9.7 80 1.7 NE 9 11 5 6 - - 0.0
27/10:00pm 13.2 11.7 9.0 75 2.1 ENE 7 9 4 5 - - 0.0
27/09:30pm 12.5 12.4 9.3 81 1.6 CALM 0 0 0 0 - - 0.0
27/09:00pm 12.5 12.3 9.1 80 1.7 CALM 0 0 0 0 - - 0.0
27/08:30pm 11.3 11.1 8.9 85 1.2 CALM 0 0 0 0 - - 0.0
27/08:00pm 10.7 9.1 8.7 87 1.0 NNW 7 9 4 5 - - 0.0
27/07:30pm 11.1 10.0 8.5 84 1.3 WNW 4 9 2 5 - - 0.0
27/07:00pm 11.5 11.2 8.5 82 1.5 CALM 0 6 0 3 - - 0.0
27/06:30pm 12.1 10.7 8.7 80 1.7 NNW 6 7 3 4 - - 0.0
27/06:00pm 12.8 11.2 8.8 76 2.0 NNW 7 7 4 4 - - 0.0
27/05:30pm 15.2 13.6 7.8 61 3.7 WNW 6 7 3 4 - - 0.0
27/05:00pm 16.5 14.7 7.0 53 4.7 SW 6 7 3 4 - - 0.0
27/04:30pm 17.3 14.7 6.1 47 5.5 SSW 9 11 5 6 - - 0.0
27/04:00pm 18.3 14.7 4.8 41 6.5 SW 13 17 7 9 - - 0.0
27/03:30pm 19.0 14.5 4.4 38 7.0 WSW 17 26 9 14 - - 0.0
27/03:00pm 18.6 14.5 4.6 39 6.7 SW 15 26 8 14 - - 0.0
27/02:30pm 18.6 15.6 7.6 48 5.6 W 13 19 7 10 - - 0.0
27/02:00pm 18.3 15.3 7.7 50 5.4 W 13 19 7 10 - - 0.0
27/01:30pm 18.5 16.3 9.4 55 4.8 WNW 11 17 6 9 - - 0.0
27/01:00pm 18.1 15.8 8.9 55 4.8 NW 11 15 6 8 - - 0.0
27/12:30pm 16.2 12.9 8.1 58 4.1 W 15 22 8 12 - - 0.0
27/12:00pm 15.9 12.0 7.0 55 4.4 W 17 26 9 14 - - 0.0
27/11:30am 16.0 12.9 7.4 56 4.3 W 13 20 7 11 - - 0.0
27/11:00am 15.7 11.8 7.0 56 4.3 W 17 26 9 14 - - 0.0
27/10:30am 15.9 12.5 7.5 57 4.2 W 15 20 8 11 - - 0.0
27/10:00am 14.7 11.9 8.6 67 3.1 W 13 17 7 9 - - 0.0
27/09:30am 13.6 10.4 8.4 71 2.6 W 15 22 8 12 - - 0.0
27/09:00am 13.4 9.7 7.9 69 2.7 W 17 28 9 15 - - 2.8
27/08:30am 13.1 9.7 7.8 70 2.6 WNW 15 26 8 14 - - 2.8
27/08:00am 12.9 9.2 7.8 71 2.5 W 17 24 9 13 - - 2.8
27/07:30am 12.6 9.3 7.9 73 2.3 W 15 24 8 13 - - 2.8
27/07:00am 12.8 8.7 7.7 71 2.5 W 19 30 10 16 - - 2.8
27/06:30am 12.0 8.2 7.5 74 2.2 WNW 17 24 9 13 - - 2.8
27/06:00am 11.4 9.2 7.7 78 1.8 W 9 22 5 12 - - 2.8
27/05:30am 12.2 9.5 7.5 73 2.3 WNW 11 17 6 9 - - 2.8
27/05:00am 11.9 8.8 7.3 73 2.2 WNW 13 19 7 10 - - 2.8
27/04:30am 11.9 8.8 7.3 73 2.2 W 13 28 7 15 - - 2.8
27/04:00am 11.4 8.7 7.2 75 2.0 W 11 19 6 10 - - 2.8
27/03:30am 11.4 8.3 7.2 75 2.0 WNW 13 19 7 10 - - 2.8
27/03:00am 11.8 9.0 7.0 72 2.3 W 11 19 6 10 - - 2.8
27/02:30am 12.2 8.7 7.2 71 2.4 WNW 15 26 8 14 - - 2.8
27/02:00am 12.2 9.8 7.0 70 2.5 WNW 9 15 5 8 - - 2.8
27/01:30am 12.3 9.1 6.9 69 2.6 WNW 13 26 7 14 - - 2.8
27/01:00am 12.5 9.2 6.4 66 2.9 W 13 19 7 10 - - 2.8
27/12:30am 12.3 9.4 6.6 68 2.7 NW 11 20 6 11 - - 2.8
27/12:00am 12.0 8.7 6.5 69 2.6 NW 13 19 7 10 - - 2.8
 
Date/Time
EST
Temp
°C
App
Temp
°C
Dew
Point
°C
Rel
Hum
%
Delta-T
°C
Wind Press
QNH
hPa
Press
MSL
hPa
Rain since
9am
mm
Dir  Spd
km/h
Gust
km/h
Spd
kts
Gust
kts
26/11:30pm 12.4 9.8 6.3 66 2.9 WSW 9 13 5 7 - - 2.8
26/11:00pm 12.0 9.4 6.3 68 2.7 W 9 17 5 9 - - 2.8
26/10:30pm 12.0 8.0 6.5 69 2.6 NW 17 30 9 16 - - 2.8
26/10:00pm 12.4 8.0 6.5 67 2.8 NW 19 30 10 16 - - 2.8
26/09:30pm 12.6 8.0 6.5 66 2.9 WNW 20 39 11 21 - - 2.8
26/09:00pm 12.6 8.6 6.5 66 2.9 WNW 17 35 9 19 - - 2.8
26/08:30pm 12.5 8.8 6.4 66 2.9 NW 15 26 8 14 - - 2.8
26/08:00pm 12.4 8.5 7.0 69 2.6 NNW 17 26 9 14 - - 2.8
26/07:30pm 12.9 8.4 6.9 67 2.9 NW 20 37 11 20 - - 2.8
26/07:00pm 13.6 9.7 7.3 65 3.1 WNW 17 28 9 15 - - 2.8
26/06:30pm 13.2 12.0 9.7 79 1.8 NNW 6 9 3 5 - - 2.8
26/06:00pm 13.1 11.0 9.6 79 1.8 NW 11 17 6 9 - - 2.8
26/05:30pm 13.4 10.9 9.7 78 1.9 NW 13 20 7 11 - - 2.8
26/05:00pm 12.8 10.4 11.3 91 0.8 NW 15 22 8 12 - - 2.8
26/04:30pm 12.9 10.6 11.6 92 0.7 WNW 15 28 8 15 - - 2.6
26/04:09pm 13.7 7.7 10.8 83 1.5 WNW 33 78 18 42 - - 1.0
26/04:00pm 18.7 7.5 5.9 43 6.3 W 54 93 29 50 - - 0.0
26/03:58pm 19.4 7.8 5.6 40 6.8 W 56 93 30 50 - - 0.0
26/03:30pm 22.5 17.4 7.5 38 7.8 W 24 37 13 20 - - 0.0
26/03:20pm 21.8 16.1 8.3 42 7.1 W 28 48 15 26 - - 0.0
26/03:00pm 23.2 18.1 7.8 37 8.1 W 24 39 13 21 - - 0.0
26/02:30pm 23.5 18.2 6.6 33 8.7 W 24 43 13 23 - - 0.0
26/02:02pm 23.6 17.5 6.8 34 8.7 W 28 52 15 28 - - 0.0
26/02:00pm 23.5 16.5 6.0 32 8.9 W 32 52 17 28 - - 0.0
26/01:55pm 23.7 17.8 7.5 35 8.5 NW 28 48 15 26 - - 0.0
26/01:30pm 23.6 19.7 9.6 41 7.6 WNW 20 35 11 19 - - 0.0
26/01:00pm 22.2 18.1 11.4 50 6.0 W 24 48 13 26 - - 0.0
26/12:30pm 24.4 21.4 12.6 47 6.8 NW 20 37 11 20 - - 0.0
26/12:00pm 24.1 20.7 12.6 48 6.6 WNW 22 33 12 18 - - 0.0
26/11:30am 23.2 19.9 12.7 51 6.0 NW 22 33 12 18 - - 0.0
26/11:00am 21.3 18.6 13.5 61 4.5 WNW 20 35 11 19 - - 0.0
26/10:30am 22.6 20.2 14.3 59 4.9 W 20 32 11 17 - - 0.0
26/10:00am 21.9 19.1 14.4 62 4.4 W 22 32 12 17 - - 0.0
26/09:30am 22.1 21.9 15.6 66 3.9 WNW 11 19 6 10 - - 0.0
26/09:00am 21.6 20.9 16.3 72 3.2 NW 15 28 8 15 - - 1.4
26/08:30am 21.5 22.9 17.4 77 2.5 ENE 6 9 3 5 - - 1.4
26/08:00am 19.3 21.1 17.5 89 1.1 NE 4 9 2 5 - - 1.4
26/07:30am 16.7 18.8 16.2 97 0.3 CALM 0 0 0 0 - - 1.4
26/07:00am 16.8 19.0 16.5 98 0.2 CALM 0 0 0 0 - - 1.4
26/06:30am 16.1 18.0 15.8 98 0.2 CALM 0 0 0 0 - - 1.4
26/06:00am 16.5 - 16.0 97 0.3 - - - - - - - 1.4
26/05:30am 16.5 17.7 16.0 97 0.3 E 4 9 2 5 - - 1.4
26/05:00am 16.7 18.3 16.0 96 0.4 WNW 2 7 1 4 - - 1.4
26/04:30am 16.6 17.2 15.9 96 0.4 N 7 13 4 7 - - 1.4
26/04:00am 17.4 18.2 16.4 94 0.6 E 7 9 4 5 - - 1.4
26/03:30am 17.2 18.7 16.7 97 0.3 E 4 6 2 3 - - 1.4
26/03:00am 16.9 18.8 16.6 98 0.2 NNE 2 7 1 4 - - 1.4
26/02:30am 17.3 19.7 17.1 99 0.1 CALM 0 0 0 0 - - 1.4
26/02:00am 17.2 19.6 16.9 98 0.2 CALM 0 0 0 0 - - 1.4
26/01:30am 17.0 19.3 16.7 98 0.2 CALM 0 0 0 0 - - 1.4
26/01:00am 17.1 19.4 16.8 98 0.2 CALM 0 4 0 2 - - 1.4
26/12:30am 17.3 18.6 17.0 98 0.2 WNW 6 7 3 4 - - 1.4
26/12:00am 17.8 20.2 17.1 96 0.4 CALM 0 0 0 0 - - 1.4
 
Date/Time
EST
Temp
°C
App
Temp
°C
Dew
Point
°C
Rel
Hum
%
Delta-T
°C
Wind Press
QNH
hPa
Press
MSL
hPa
Rain since
9am
mm
Dir  Spd
km/h
Gust
km/h
Spd
kts
Gust
kts
25/11:30pm 17.8 19.9 17.3 97 0.3 S 2 7 1 4 - - 1.4
25/11:00pm 18.1 20.6 17.3 95 0.5 CALM 0 0 0 0 - - 1.4
25/10:30pm 18.3 20.5 17.5 95 0.5 NE 2 7 1 4 - - 1.4
25/10:00pm 18.7 21.4 17.7 94 0.6 CALM 0 0 0 0 - - 1.4
25/09:30pm 18.9 20.9 17.8 93 0.7 SSW 4 9 2 5 - - 1.4
25/09:00pm 19.1 21.7 17.6 91 0.9 CALM 0 0 0 0 - - 1.4
25/08:30pm 19.1 21.0 17.6 91 0.9 ENE 4 9 2 5 - - 1.4
25/08:00pm 19.2 20.1 17.6 90 1.0 ENE 9 13 5 7 - - 1.2
25/07:30pm 19.1 20.1 17.8 92 0.8 NNE 9 11 5 6 - - 1.0
25/07:00pm 19.2 19.8 17.7 91 0.9 NE 11 13 6 7 - - 1.0
25/06:30pm 19.9 20.5 16.9 83 1.8 N 9 13 5 7 - - 1.0

Other Formats:

Comma delimited format used in spreadsheet applications
http://www.bom.gov.au/fwo/IDN60801/IDN60801.94775.axf

JavaScript Object Notation format (JSON) in row-major order
http://www.bom.gov.au/fwo/IDN60801/IDN60801.94775.json